Time;durP1;ratioP1;P1;durP2;ratioP2;P2;SDS_P1;SDS_P2;PMS_P1;PMS_P2;Temp;Humidity;BMP_temperature;BMP_pressure;BME280_temperature;BME280_humidity;BME280_pressure;Samples;Min_cycle;Max_cycle;Signal;HPM_P1;HPM_P2
2022/09/30 00:01:24;;;;;;;;;;;;;;;;;;4907391;29;19922;-33
2022/09/30 00:03:49;;;;;;;;;;;;;;;;;;4901823;29;20377;-33
2022/09/30 00:06:15;;;;;;;;;;;;;;;;;;4908893;29;19915;-33
2022/09/30 00:08:40;;;;;;;;;;;;;;;;;;4909218;29;19919;-33
2022/09/30 00:11:05;;;;;;;;;;;;;;;;;;4909046;29;20297;-33
2022/09/30 00:13:30;;;;;;;;;;;;;;;;;;4910101;29;20305;-33
2022/09/30 00:15:55;;;;;;;;;;;;;;;;;;4911269;29;20018;-33
2022/09/30 00:18:21;;;;;;;;;;;;;;;;;;4909815;29;19967;-33
2022/09/30 00:20:46;;;;;;;;;;;;;;;;;;4906894;29;19934;-33
2022/09/30 00:23:11;;;;;;;;;;;;;;;;;;4910826;29;20528;-33
2022/09/30 00:25:36;;;;;;;;;;;;;;;;;;4909358;29;19939;-33
2022/09/30 00:28:01;;;;;;;;;;;;;;;;;;4905594;29;19986;-33
2022/09/30 00:30:26;;;;;;;;;;;;;;;;;;4910964;29;19951;-33
2022/09/30 00:32:52;;;;;;;;;;;;;;;;;;4906479;29;19915;-33
2022/09/30 00:35:17;;;;;;;;;;;;;;;;;;4905423;29;19922;-33
2022/09/30 00:37:42;;;;;;;;;;;;;;;;;;4910393;29;19919;-33
2022/09/30 00:40:10;;;;;;;;;;;;;;;;;;4910394;29;19926;-33
2022/09/30 00:42:35;;;;;;;;;;;;;;;;;;4908933;29;19919;-33
2022/09/30 00:45:00;;;;;;;;;;;;;;;;;;4908664;29;19989;-33
2022/09/30 00:47:27;;;;;;;;;;;;;;;;;;4905674;29;19915;-33
2022/09/30 00:49:52;;;;;;;;;;;;;;;;;;4912401;29;19961;-33
2022/09/30 00:52:18;;;;;;;;;;;;;;;;;;4908108;29;19951;-33
2022/09/30 00:54:43;;;;;;;;;;;;;;;;;;4906965;29;19915;-33
2022/09/30 00:57:08;;;;;;;;;;;;;;;;;;4900980;29;20405;-33
2022/09/30 00:59:34;;;;;;;;;;;;;;;;;;4902495;29;20618;-33
2022/09/30 01:01:59;;;;;;;;;;;;;;;;;;4903263;29;19923;-33
2022/09/30 01:04:25;;;;;;;;;;;;;;;;;;4901492;29;19927;-32
2022/09/30 01:06:50;;;;;;;;;;;;;;;;;;4900447;29;19923;-33
2022/09/30 01:09:15;;;;;;;;;;;;;;;;;;4899557;29;20000;-32
2022/09/30 01:11:40;;;;;;;;;;;;;;;;;;4900329;29;19919;-32
2022/09/30 01:14:05;;;;;;;;;;;;;;;;;;4908082;29;19919;-33
2022/09/30 01:16:30;;;;;;;;;;;;;;;;;;4908050;29;19930;-33
2022/09/30 01:18:56;;;;;;;;;;;;;;;;;;4903907;29;19923;-32
2022/09/30 01:21:21;;;;;;;;;;;;;;;;;;4912990;29;19925;-32
2022/09/30 01:23:46;;;;;;;;;;;;;;;;;;4913808;29;20002;-33
2022/09/30 01:26:11;;;;;;;;;;;;;;;;;;4908199;29;19927;-32
2022/09/30 01:28:37;;;;;;;;;;;;;;;;;;4910046;29;19915;-33
2022/09/30 01:31:02;;;;;;;;;;;;;;;;;;4905153;29;20421;-32
2022/09/30 01:33:27;;;;;;;;;;;;;;;;;;4913437;29;19975;-33
2022/09/30 01:35:52;;;;;;;;;;;;;;;;;;4906303;29;20436;-33
2022/09/30 01:38:17;;;;;;;;;;;;;;;;;;4905581;29;20005;-33
2022/09/30 01:40:42;;;;;;;;;;;;;;;;;;4905291;29;19916;-33
2022/09/30 01:43:09;;;;;;;;;;;;;;;;;;4904574;29;19925;-32
2022/09/30 01:45:35;;;;;;;;;;;;;;;;;;4905868;29;20317;-32
2022/09/30 01:48:00;;;;;;;;;;;;;;;;;;4907971;29;20017;-32
2022/09/30 01:50:25;;;;;;;;;;;;;;;;;;4907670;29;19923;-32
2022/09/30 01:52:51;;;;;;;;;;;;;;;;;;4906286;29;20361;-32
2022/09/30 01:55:16;;;;;;;;;;;;;;;;;;4905673;29;19929;-32
2022/09/30 01:57:41;;;;;;;;;;;;;;;;;;4905236;29;19961;-33
2022/09/30 02:00:07;;;;;;;;;;;;;;;;;;4933747;23;19934;-35
2022/09/30 02:02:32;;;;;;;;;;;;;;;;;;4915796;29;19958;-35
2022/09/30 02:04:57;;;;;;;;;;;;;;;;;;4919657;29;20022;-35
2022/09/30 02:07:24;;;;;;;;;;;;;;;;;;4923232;29;20385;-35
2022/09/30 02:09:49;;;;;;;;;;;;;;;;;;4919323;29;19915;-36
2022/09/30 02:12:14;;;;;;;;;;;;;;;;;;4914710;29;20486;-36
2022/09/30 02:14:39;;;;;;;;;;;;;;;;;;4914837;29;20374;-35
2022/09/30 02:17:04;;;;;;;;;;;;;;;;;;4916172;29;19914;-35
2022/09/30 02:19:30;;;;;;;;;;;;;;;;;;4914133;29;20034;-35
2022/09/30 02:21:55;;;;;;;;;;;;;;;;;;4920930;29;20257;-36
2022/09/30 02:24:23;;;;;;;;;;;;;;;;;;4915250;29;19930;-36
2022/09/30 02:26:48;;;;;;;;;;;;;;;;;;4915447;29;20385;-35
2022/09/30 02:29:13;;;;;;;;;;;;;;;;;;4912293;29;19919;-35
2022/09/30 02:31:38;;;;;;;;;;;;;;;;;;4918847;29;20345;-35
2022/09/30 02:34:03;;;;;;;;;;;;;;;;;;4918547;29;19911;-36
2022/09/30 02:36:29;;;;;;;;;;;;;;;;;;4917786;29;20373;-35
2022/09/30 02:38:54;;;;;;;;;;;;;;;;;;4920145;29;19971;-35
2022/09/30 02:41:20;;;;;;;;;;;;;;;;;;4915529;29;20341;-35
2022/09/30 02:43:45;;;;;;;;;;;;;;;;;;4917221;29;19915;-36
2022/09/30 02:46:10;;;;;;;;;;;;;;;;;;4918137;29;19915;-36
2022/09/30 02:48:36;;;;;;;;;;;;;;;;;;4914080;29;20372;-35
2022/09/30 02:51:02;;;;;;;;;;;;;;;;;;4920597;29;19918;-36
2022/09/30 02:53:27;;;;;;;;;;;;;;;;;;4923026;29;19931;-35
2022/09/30 02:55:53;;;;;;;;;;;;;;;;;;4921785;29;19937;-35
2022/09/30 02:58:18;;;;;;;;;;;;;;;;;;4920194;29;19937;-36
2022/09/30 03:00:43;;;;;;;;;;;;;;;;;;4920970;29;19967;-35
2022/09/30 03:03:08;;;;;;;;;;;;;;;;;;4916950;29;20018;-35
2022/09/30 03:05:33;;;;;;;;;;;;;;;;;;4922367;29;19930;-36
2022/09/30 03:07:58;;;;;;;;;;;;;;;;;;4921799;29;20037;-36
2022/09/30 03:10:24;;;;;;;;;;;;;;;;;;4917605;29;19922;-35
2022/09/30 03:12:49;;;;;;;;;;;;;;;;;;4920965;29;19915;-35
2022/09/30 03:15:14;;;;;;;;;;;;;;;;;;4919482;29;20482;-35
2022/09/30 03:17:39;;;;;;;;;;;;;;;;;;4920252;29;19925;-36
2022/09/30 03:20:04;;;;;;;;;;;;;;;;;;4920496;29;19963;-35
2022/09/30 03:22:29;;;;;;;;;;;;;;;;;;4917423;29;20436;-35
2022/09/30 03:24:54;;;;;;;;;;;;;;;;;;4919407;29;19923;-35
2022/09/30 03:27:20;;;;;;;;;;;;;;;;;;4919547;29;19922;-36
2022/09/30 03:29:45;;;;;;;;;;;;;;;;;;4916290;29;20453;-35
2022/09/30 03:32:10;;;;;;;;;;;;;;;;;;4915918;29;19915;-35
2022/09/30 03:34:36;;;;;;;;;;;;;;;;;;4919049;29;19915;-35
2022/09/30 03:37:01;;;;;;;;;;;;;;;;;;4920687;29;20389;-35
2022/09/30 03:39:26;;;;;;;;;;;;;;;;;;4919202;29;19981;-35
2022/09/30 03:41:52;;;;;;;;;;;;;;;;;;4924202;29;19915;-35
2022/09/30 03:44:17;;;;;;;;;;;;;;;;;;4918033;29;19980;-35
2022/09/30 03:46:42;;;;;;;;;;;;;;;;;;4920554;29;20263;-36
2022/09/30 03:49:07;;;;;;;;;;;;;;;;;;4919683;29;19918;-35
2022/09/30 03:51:32;;;;;;;;;;;;;;;;;;4918558;29;19919;-35
2022/09/30 03:53:57;;;;;;;;;;;;;;;;;;4921063;29;19914;-35
2022/09/30 03:56:23;;;;;;;;;;;;;;;;;;4916169;29;19919;-35
2022/09/30 03:58:48;;;;;;;;;;;;;;;;;;4920287;29;20015;-35
2022/09/30 04:01:13;;;;;;;;;;;;;;;;;;4917744;29;19931;-35
2022/09/30 04:03:40;;;;;;;;;;;;;;;;;;4918662;29;20207;-36
2022/09/30 04:06:05;;;;;;;;;;;;;;;;;;4917561;29;20023;-35
2022/09/30 04:08:30;;;;;;;;;;;;;;;;;;4918895;29;20007;-35
2022/09/30 04:10:55;;;;;;;;;;;;;;;;;;4918524;29;19978;-36
2022/09/30 04:13:20;;;;;;;;;;;;;;;;;;4918064;29;20026;-36
2022/09/30 04:15:46;;;;;;;;;;;;;;;;;;4913575;29;19915;-35
2022/09/30 04:18:11;;;;;;;;;;;;;;;;;;4917270;29;20588;-36
2022/09/30 04:20:36;;;;;;;;;;;;;;;;;;4915013;29;19915;-35
2022/09/30 04:23:01;;;;;;;;;;;;;;;;;;4919781;29;19914;-35
2022/09/30 04:25:26;;;;;;;;;;;;;;;;;;4915769;29;19958;-35
2022/09/30 04:27:51;;;;;;;;;;;;;;;;;;4925662;29;20068;-36
2022/09/30 04:30:17;;;;;;;;;;;;;;;;;;4919300;29;20341;-35
2022/09/30 04:32:44;;;;;;;;;;;;;;;;;;4918287;29;19923;-35
2022/09/30 04:35:09;;;;;;;;;;;;;;;;;;4920945;29;19918;-35
2022/09/30 04:37:34;;;;;;;;;;;;;;;;;;4917833;29;19919;-35
2022/09/30 04:40:01;;;;;;;;;;;;;;;;;;4918700;29;20010;-35
2022/09/30 04:42:26;;;;;;;;;;;;;;;;;;4916451;29;19919;-35
2022/09/30 04:44:51;;;;;;;;;;;;;;;;;;4924119;29;19918;-36
2022/09/30 04:47:16;;;;;;;;;;;;;;;;;;4912427;29;20297;-36
2022/09/30 04:49:42;;;;;;;;;;;;;;;;;;4917168;29;19915;-35
2022/09/30 04:52:07;;;;;;;;;;;;;;;;;;4921967;29;20282;-36
2022/09/30 04:54:32;;;;;;;;;;;;;;;;;;4913461;29;19916;-35
2022/09/30 04:56:57;;;;;;;;;;;;;;;;;;4920170;29;20409;-35
2022/09/30 04:59:22;;;;;;;;;;;;;;;;;;4914257;29;20155;-35
2022/09/30 05:01:47;;;;;;;;;;;;;;;;;;4919390;29;20148;-34
2022/09/30 05:04:12;;;;;;;;;;;;;;;;;;4916053;29;20405;-35
2022/09/30 05:06:40;;;;;;;;;;;;;;;;;;4911653;29;19926;-35
2022/09/30 05:09:06;;;;;;;;;;;;;;;;;;4926038;29;19919;-35
2022/09/30 05:11:31;;;;;;;;;;;;;;;;;;4920511;29;19978;-36
2022/09/30 05:13:56;;;;;;;;;;;;;;;;;;4919183;29;20113;-35
2022/09/30 05:16:21;;;;;;;;;;;;;;;;;;4920583;29;20425;-35
2022/09/30 05:18:46;;;;;;;;;;;;;;;;;;4921316;29;19919;-35
2022/09/30 05:21:11;;;;;;;;;;;;;;;;;;4920501;29;20464;-35
2022/09/30 05:23:37;;;;;;;;;;;;;;;;;;4915357;29;20025;-36
2022/09/30 05:26:02;;;;;;;;;;;;;;;;;;4923504;29;19957;-35
2022/09/30 05:28:30;;;;;;;;;;;;;;;;;;4912026;29;19927;-35
2022/09/30 05:30:55;;;;;;;;;;;;;;;;;;4917742;29;19919;-35
2022/09/30 05:33:20;;;;;;;;;;;;;;;;;;4926406;29;19930;-35
2022/09/30 05:35:46;;;;;;;;;;;;;;;;;;4917221;29;19918;-35
2022/09/30 05:38:12;;;;;;;;;;;;;;;;;;4912231;29;19927;-35
2022/09/30 05:40:38;;;;;;;;;;;;;;;;;;4911871;29;19915;-35
2022/09/30 05:43:03;;;;;;;;;;;;;;;;;;4911845;29;19919;-36
2022/09/30 05:45:28;;;;;;;;;;;;;;;;;;4914242;29;20372;-35
2022/09/30 05:47:53;;;;;;;;;;;;;;;;;;4915972;29;19978;-35
2022/09/30 05:50:19;;;;;;;;;;;;;;;;;;4920026;29;19957;-35
2022/09/30 05:52:44;;;;;;;;;;;;;;;;;;4915789;29;20424;-35
2022/09/30 05:55:10;;;;;;;;;;;;;;;;;;4922073;29;19915;-34
2022/09/30 05:57:35;;;;;;;;;;;;;;;;;;4913661;29;19923;-35
2022/09/30 06:00:00;;;;;;;;;;;;;;;;;;4917216;29;19926;-35
2022/09/30 06:02:25;;;;;;;;;;;;;;;;;;4919774;29;20337;-35
2022/09/30 06:04:50;;;;;;;;;;;;;;;;;;4916481;29;19973;-35
2022/09/30 06:07:16;;;;;;;;;;;;;;;;;;4921865;29;19919;-35
2022/09/30 06:09:41;;;;;;;;;;;;;;;;;;4917647;29;19915;-35
2022/09/30 06:12:06;;;;;;;;;;;;;;;;;;4915097;29;20324;-35
2022/09/30 06:14:31;;;;;;;;;;;;;;;;;;4916071;29;19931;-36
2022/09/30 06:16:59;;;;;;;;;;;;;;;;;;4916850;29;19925;-36
2022/09/30 06:19:24;;;;;;;;;;;;;;;;;;4917403;29;20344;-36
2022/09/30 06:21:49;;;;;;;;;;;;;;;;;;4912813;29;20458;-36
2022/09/30 06:24:14;;;;;;;;;;;;;;;;;;4916628;29;20148;-35
2022/09/30 06:26:41;;;;;;;;;;;;;;;;;;4914883;29;19954;-36
2022/09/30 06:29:07;;;;;;;;;;;;;;;;;;4915118;29;19963;-35
2022/09/30 06:31:32;;;;;;;;;;;;;;;;;;4919024;29;19919;-35
2022/09/30 06:33:57;;;;;;;;;;;;;;;;;;4918965;29;21429;-36
2022/09/30 06:36:22;;;;;;;;;;;;;;;;;;4915708;29;19971;-35
2022/09/30 06:38:50;;;;;;;;;;;;;;;;;;4919233;29;19925;-35
2022/09/30 06:41:15;;;;;;;;;;;;;;;;;;4916911;29;19946;-36
2022/09/30 06:43:41;;;;;;;;;;;;;;;;;;4921071;29;19965;-35
2022/09/30 06:46:06;;;;;;;;;;;;;;;;;;4923602;29;19947;-35
2022/09/30 06:48:32;;;;;;;;;;;;;;;;;;4917265;29;19915;-35
2022/09/30 06:50:57;;;;;;;;;;;;;;;;;;4921686;29;19934;-35
2022/09/30 06:53:22;;;;;;;;;;;;;;;;;;4917505;29;19930;-36
2022/09/30 06:55:47;;;;;;;;;;;;;;;;;;4916001;29;19915;-35
2022/09/30 06:58:12;;;;;;;;;;;;;;;;;;4917056;29;20448;-35
2022/09/30 07:00:38;;;;;;;;;;;;;;;;;;4916472;29;19998;-35
2022/09/30 07:03:04;;;;;;;;;;;;;;;;;;4912591;29;20492;-35
2022/09/30 07:05:29;;;;;;;;;;;;;;;;;;4915298;29;20269;-35
2022/09/30 07:07:55;;;;;;;;;;;;;;;;;;4915282;29;19922;-36
2022/09/30 07:10:20;;;;;;;;;;;;;;;;;;4914563;29;19919;-35
2022/09/30 07:12:46;;;;;;;;;;;;;;;;;;4914213;29;19941;-35
2022/09/30 07:15:11;;;;;;;;;;;;;;;;;;4914378;29;19975;-35
2022/09/30 07:17:36;;;;;;;;;;;;;;;;;;4914356;29;19934;-35
2022/09/30 07:20:01;;;;;;;;;;;;;;;;;;4912483;29;19931;-36
2022/09/30 07:22:27;;;;;;;;;;;;;;;;;;4915876;29;19919;-35
2022/09/30 07:24:52;;;;;;;;;;;;;;;;;;4913591;29;20381;-36
2022/09/30 07:27:18;;;;;;;;;;;;;;;;;;4913902;29;19926;-36
2022/09/30 07:29:43;;;;;;;;;;;;;;;;;;4915455;29;19918;-35
2022/09/30 07:32:08;;;;;;;;;;;;;;;;;;4913947;29;19993;-35
2022/09/30 07:34:33;;;;;;;;;;;;;;;;;;4915111;29;19923;-35
2022/09/30 07:36:59;;;;;;;;;;;;;;;;;;4914651;29;19970;-36
2022/09/30 07:39:24;;;;;;;;;;;;;;;;;;4912845;29;20290;-35
2022/09/30 07:41:50;;;;;;;;;;;;;;;;;;4913462;29;19950;-36
2022/09/30 07:44:15;;;;;;;;;;;;;;;;;;4911872;29;20038;-35
2022/09/30 07:46:40;;;;;;;;;;;;;;;;;;4919500;29;20293;-36
2022/09/30 07:49:07;;;;;;;;;;;;;;;;;;4915072;29;19927;-35
2022/09/30 07:51:33;;;;;;;;;;;;;;;;;;4910498;29;19926;-35
2022/09/30 07:53:58;;;;;;;;;;;;;;;;;;4911640;29;19922;-36
2022/09/30 07:56:23;;;;;;;;;;;;;;;;;;4912028;29;19956;-35
2022/09/30 07:58:48;;;;;;;;;;;;;;;;;;4917062;29;19915;-33
2022/09/30 08:01:13;;;;;;;;;;;;;;;;;;4914144;29;19934;-33
2022/09/30 08:03:38;;;;;;;;;;;;;;;;;;4912161;29;19914;-33
2022/09/30 08:06:04;;;;;;;;;;;;;;;;;;4912043;29;20002;-33
2022/09/30 08:08:29;;;;;;;;;;;;;;;;;;4914881;29;20621;-33
2022/09/30 08:10:54;;;;;;;;;;;;;;;;;;4916560;29;19918;-34
2022/09/30 08:13:19;;;;;;;;;;;;;;;;;;4918651;29;19929;-33
2022/09/30 08:15:44;;;;;;;;;;;;;;;;;;4919672;29;20244;-34
2022/09/30 08:18:09;;;;;;;;;;;;;;;;;;4908718;29;19923;-34
2022/09/30 08:20:34;;;;;;;;;;;;;;;;;;4917107;29;20006;-33
2022/09/30 08:23:00;;;;;;;;;;;;;;;;;;4915165;29;19926;-34
2022/09/30 08:25:26;;;;;;;;;;;;;;;;;;4916680;29;19974;-34
2022/09/30 08:27:51;;;;;;;;;;;;;;;;;;4916427;29;19923;-34
2022/09/30 08:30:16;;;;;;;;;;;;;;;;;;4916674;29;20258;-34
2022/09/30 08:32:42;;;;;;;;;;;;;;;;;;4911890;29;19919;-34
2022/09/30 08:35:07;;;;;;;;;;;;;;;;;;4911169;29;19974;-34
2022/09/30 08:37:32;;;;;;;;;;;;;;;;;;4912855;29;19963;-34
2022/09/30 08:39:57;;;;;;;;;;;;;;;;;;4919877;29;19915;-34
2022/09/30 08:42:22;;;;;;;;;;;;;;;;;;4913693;29;19954;-34
2022/09/30 08:44:47;;;;;;;;;;;;;;;;;;4915049;29;20376;-34
2022/09/30 08:47:13;;;;;;;;;;;;;;;;;;4918003;29;19978;-34
2022/09/30 08:49:38;;;;;;;;;;;;;;;;;;4915109;29;20071;-34
2022/09/30 08:52:04;;;;;;;;;;;;;;;;;;4914281;29;19957;-34
2022/09/30 08:54:29;;;;;;;;;;;;;;;;;;4917739;29;20328;-34
2022/09/30 08:56:54;;;;;;;;;;;;;;;;;;4921255;29;19927;-34
2022/09/30 08:59:19;;;;;;;;;;;;;;;;;;4919528;29;19974;-34
2022/09/30 09:01:45;;;;;;;;;;;;;;;;;;4916071;29;19923;-34
2022/09/30 09:04:10;;;;;;;;;;;;;;;;;;4915451;29;20282;-34
2022/09/30 09:06:35;;;;;;;;;;;;;;;;;;4916994;29;20002;-34
2022/09/30 09:09:00;;;;;;;;;;;;;;;;;;4918863;29;20297;-34
2022/09/30 09:11:26;;;;;;;;;;;;;;;;;;4915038;29;20061;-34
2022/09/30 09:13:51;;;;;;;;;;;;;;;;;;4921309;29;19919;-34
2022/09/30 09:16:16;;;;;;;;;;;;;;;;;;4915401;29;19974;-34
2022/09/30 09:18:41;;;;;;;;;;;;;;;;;;4915134;29;20037;-34
2022/09/30 09:21:08;;;;;;;;;;;;;;;;;;4914129;29;19921;-34
2022/09/30 09:23:33;;;;;;;;;;;;;;;;;;4918568;29;19915;-34
2022/09/30 09:25:58;;;;;;;;;;;;;;;;;;4922824;29;19954;-34
2022/09/30 09:28:24;;;;;;;;;;;;;;;;;;4916999;29;19954;-34
2022/09/30 09:30:50;;;;;;;;;;;;;;;;;;4918358;29;19961;-34
2022/09/30 09:33:16;;;;;;;;;;;;;;;;;;4915995;29;19958;-34
2022/09/30 09:35:41;;;;;;;;;;;;;;;;;;4917105;29;20006;-34
2022/09/30 09:38:25;;;;;;;;;;;;;;;;;;4912687;29;19997;-34
2022/09/30 09:40:56;;;;;;;;;;;;;;;;;;4914544;29;19945;-34
2022/09/30 09:43:21;;;;;;;;;;;;;;;;;;4914339;29;20392;-34
2022/09/30 09:45:46;;;;;;;;;;;;;;;;;;4917303;29;19969;-34
2022/09/30 09:48:12;;;;;;;;;;;;;;;;;;4913442;29;19993;-34
2022/09/30 09:50:37;;;;;;;;;;;;;;;;;;4913964;29;20326;-34
2022/09/30 09:53:03;;;;;;;;;;;;;;;;;;4914451;29;20407;-34
2022/09/30 09:55:28;;;;;;;;;;;;;;;;;;4912918;29;19986;-34
2022/09/30 09:57:54;;;;;;;;;;;;;;;;;;4916082;29;20025;-34
2022/09/30 10:03:03;;;;;;;;;;;;;;;;;;4913124;29;19930;-34
2022/09/30 10:05:31;;;;;;;;;;;;;;;;;;4915280;29;19926;-34
2022/09/30 10:07:56;;;;;;;;;;;;;;;;;;4913751;29;20031;-34
2022/09/30 10:10:21;;;;;;;;;;;;;;;;;;4918611;29;20416;-35
2022/09/30 10:12:46;;;;;;;;;;;;;;;;;;4912112;29;19915;-34
2022/09/30 10:15:11;;;;;;;;;;;;;;;;;;4912766;29;21691;-34
2022/09/30 10:17:37;;;;;;;;;;;;;;;;;;4913252;29;20167;-35
2022/09/30 10:20:04;;;;;;;;;;;;;;;;;;4913421;29;19933;-35
2022/09/30 10:22:29;;;;;;;;;;;;;;;;;;4912164;29;19958;-34
2022/09/30 10:24:54;;;;;;;;;;;;;;;;;;4912802;29;19980;-34
2022/09/30 10:27:20;;;;;;;;;;;;;;;;;;4915881;29;19970;-35
2022/09/30 10:29:45;;;;;;;;;;;;;;;;;;4913090;29;19923;-34
2022/09/30 10:32:10;;;;;;;;;;;;;;;;;;4914486;29;19970;-34
2022/09/30 10:34:35;;;;;;;;;;;;;;;;;;4913333;29;19993;-35
2022/09/30 10:37:00;;;;;;;;;;;;;;;;;;4913496;29;20301;-35
2022/09/30 10:39:25;;;;;;;;;;;;;;;;;;4914345;29;19939;-34
2022/09/30 10:41:51;;;;;;;;;;;;;;;;;;4924245;29;20396;-34
2022/09/30 10:44:16;;;;;;;;;;;;;;;;;;4920402;29;19923;-35
2022/09/30 10:46:41;;;;;;;;;;;;;;;;;;4920471;29;19926;-34
2022/09/30 10:49:06;;;;;;;;;;;;;;;;;;4935176;29;20364;-35
2022/09/30 10:51:32;;;;;;;;;;;;;;;;;;4933799;29;19914;-35
2022/09/30 10:53:58;;;;;;;;;;;;;;;;;;4929967;29;19926;-35
2022/09/30 10:56:23;;;;;;;;;;;;;;;;;;4923717;29;19926;-35
2022/09/30 10:58:48;;;;;;;;;;;;;;;;;;4911214;29;20452;-35
2022/09/30 11:01:13;;;;;;;;;;;;;;;;;;4927923;29;19919;-34
2022/09/30 11:03:38;;;;;;;;;;;;;;;;;;4925409;29;19966;-35
2022/09/30 11:06:04;;;;;;;;;;;;;;;;;;4936355;29;20315;-35
2022/09/30 11:08:29;;;;;;;;;;;;;;;;;;4916081;29;19915;-35
2022/09/30 11:10:54;;;;;;;;;;;;;;;;;;4921317;29;20370;-35
2022/09/30 11:13:20;;;;;;;;;;;;;;;;;;4925786;29;19989;-35
2022/09/30 11:15:45;;;;;;;;;;;;;;;;;;4932210;29;20282;-35
2022/09/30 11:18:10;;;;;;;;;;;;;;;;;;4921163;29;19946;-35
2022/09/30 11:20:35;;;;;;;;;;;;;;;;;;4927661;29;19918;-35
2022/09/30 11:23:01;;;;;;;;;;;;;;;;;;4930005;29;20376;-35
2022/09/30 11:25:26;;;;;;;;;;;;;;;;;;4927437;29;20364;-35
2022/09/30 11:27:51;;;;;;;;;;;;;;;;;;4924131;29;19951;-35
2022/09/30 11:30:17;;;;;;;;;;;;;;;;;;4934548;28;19921;-35
2022/09/30 11:32:42;;;;;;;;;;;;;;;;;;4929838;29;20424;-35
2022/09/30 11:35:07;;;;;;;;;;;;;;;;;;4926665;29;19966;-35
2022/09/30 11:37:32;;;;;;;;;;;;;;;;;;4913812;29;19915;-35
2022/09/30 11:39:57;;;;;;;;;;;;;;;;;;4920930;29;20441;-35
2022/09/30 11:42:22;;;;;;;;;;;;;;;;;;4920439;29;19918;-35
2022/09/30 11:44:48;;;;;;;;;;;;;;;;;;4913075;29;19922;-35
2022/09/30 11:47:13;;;;;;;;;;;;;;;;;;4915234;29;20784;-35
2022/09/30 11:49:38;;;;;;;;;;;;;;;;;;4922358;29;19966;-35
2022/09/30 11:52:03;;;;;;;;;;;;;;;;;;4913955;29;19969;-35
2022/09/30 11:54:28;;;;;;;;;;;;;;;;;;4915304;29;19926;-35
2022/09/30 11:56:53;;;;;;;;;;;;;;;;;;4916410;29;19923;-35
2022/09/30 11:59:19;;;;;;;;;;;;;;;;;;4919643;29;20300;-35
2022/09/30 12:01:44;;;;;;;;;;;;;;;;;;4912961;29;20053;-35
2022/09/30 12:04:09;;;;;;;;;;;;;;;;;;4925582;29;19954;-34
2022/09/30 12:06:34;;;;;;;;;;;;;;;;;;4917972;29;20226;-35
2022/09/30 12:08:59;;;;;;;;;;;;;;;;;;4921785;29;19922;-35
2022/09/30 12:11:24;;;;;;;;;;;;;;;;;;4916485;29;20167;-35
2022/09/30 12:13:50;;;;;;;;;;;;;;;;;;4917066;29;19923;-35
2022/09/30 12:16:15;;;;;;;;;;;;;;;;;;4920968;29;20389;-35
2022/09/30 12:18:41;;;;;;;;;;;;;;;;;;4918184;29;19919;-35
2022/09/30 12:21:06;;;;;;;;;;;;;;;;;;4912131;29;19944;-35
2022/09/30 12:23:31;;;;;;;;;;;;;;;;;;4913267;29;20013;-35
2022/09/30 12:25:56;;;;;;;;;;;;;;;;;;4912934;29;19926;-35
2022/09/30 12:31:05;;;;;;;;;;;;;;;;;;4918054;29;19941;-35
2022/09/30 12:33:31;;;;;;;;;;;;;;;;;;4914340;29;20382;-35
2022/09/30 12:35:57;;;;;;;;;;;;;;;;;;4911658;29;20611;-35
2022/09/30 12:38:22;;;;;;;;;;;;;;;;;;4918529;29;20001;-35
2022/09/30 12:40:47;;;;;;;;;;;;;;;;;;4914673;29;19922;-35
2022/09/30 12:43:12;;;;;;;;;;;;;;;;;;4912915;29;19918;-35
2022/09/30 12:45:38;;;;;;;;;;;;;;;;;;4920851;29;20424;-35
2022/09/30 12:48:04;;;;;;;;;;;;;;;;;;4917006;29;19923;-35
2022/09/30 12:50:29;;;;;;;;;;;;;;;;;;4918072;29;20162;-35
2022/09/30 12:52:56;;;;;;;;;;;;;;;;;;4912494;29;20577;-35
2022/09/30 12:55:21;;;;;;;;;;;;;;;;;;4917665;29;19930;-35
2022/09/30 12:57:46;;;;;;;;;;;;;;;;;;4917833;29;19989;-35
2022/09/30 13:00:11;;;;;;;;;;;;;;;;;;4913550;29;19962;-35
2022/09/30 13:02:36;;;;;;;;;;;;;;;;;;4916147;29;20123;-35
2022/09/30 13:05:01;;;;;;;;;;;;;;;;;;4915661;29;19934;-35
2022/09/30 13:07:27;;;;;;;;;;;;;;;;;;4916180;29;19925;-35
2022/09/30 13:09:53;;;;;;;;;;;;;;;;;;4917271;29;20190;-35
2022/09/30 13:12:18;;;;;;;;;;;;;;;;;;4924836;29;19919;-35
2022/09/30 13:14:43;;;;;;;;;;;;;;;;;;4911542;29;20006;-35
2022/09/30 13:17:11;;;;;;;;;;;;;;;;;;4917547;29;19915;-35
2022/09/30 13:19:39;;;;;;;;;;;;;;;;;;4911723;29;19915;-35
2022/09/30 13:22:04;;;;;;;;;;;;;;;;;;4917680;29;20009;-35
2022/09/30 13:24:29;;;;;;;;;;;;;;;;;;4914458;29;20009;-35
2022/09/30 13:26:55;;;;;;;;;;;;;;;;;;4919393;29;19922;-35
2022/09/30 13:29:21;;;;;;;;;;;;;;;;;;4915791;29;20033;-35
2022/09/30 13:31:46;;;;;;;;;;;;;;;;;;4916275;29;20448;-35
2022/09/30 13:34:11;;;;;;;;;;;;;;;;;;4913426;29;19918;-35
2022/09/30 13:36:37;;;;;;;;;;;;;;;;;;4914597;29;20297;-35
2022/09/30 13:39:02;;;;;;;;;;;;;;;;;;4914192;29;19974;-35
2022/09/30 13:41:27;;;;;;;;;;;;;;;;;;4920516;29;19914;-35
2022/09/30 13:43:52;;;;;;;;;;;;;;;;;;4917517;29;20006;-35
2022/09/30 13:46:17;;;;;;;;;;;;;;;;;;4914225;29;20289;-35
2022/09/30 13:48:42;;;;;;;;;;;;;;;;;;4913340;29;19919;-35
2022/09/30 13:51:08;;;;;;;;;;;;;;;;;;4915788;29;19998;-35
2022/09/30 13:53:33;;;;;;;;;;;;;;;;;;4912601;29;19919;-35
2022/09/30 13:55:58;;;;;;;;;;;;;;;;;;4915755;29;19954;-35
2022/09/30 13:58:23;;;;;;;;;;;;;;;;;;4914737;29;20594;-35
2022/09/30 14:00:49;;;;;;;;;;;;;;;;;;4915044;29;20045;-37
2022/09/30 14:03:14;;;;;;;;;;;;;;;;;;4912100;29;20437;-38
2022/09/30 14:05:39;;;;;;;;;;;;;;;;;;4909239;29;19926;-39
2022/09/30 14:08:04;;;;;;;;;;;;;;;;;;4911594;29;19957;-37
2022/09/30 14:10:30;;;;;;;;;;;;;;;;;;4913551;29;20353;-37
2022/09/30 14:12:55;;;;;;;;;;;;;;;;;;4915270;29;19916;-37
2022/09/30 14:15:21;;;;;;;;;;;;;;;;;;4907436;29;19951;-37
2022/09/30 14:17:46;;;;;;;;;;;;;;;;;;4915990;29;19918;-37
2022/09/30 14:20:11;;;;;;;;;;;;;;;;;;4913081;29;19929;-37
2022/09/30 14:22:36;;;;;;;;;;;;;;;;;;4914788;29;19914;-37
2022/09/30 14:25:02;;;;;;;;;;;;;;;;;;4912932;29;19974;-38
2022/09/30 14:27:27;;;;;;;;;;;;;;;;;;4913944;29;20385;-37
2022/09/30 14:29:52;;;;;;;;;;;;;;;;;;4911549;29;19947;-38
2022/09/30 14:32:17;;;;;;;;;;;;;;;;;;4916920;29;19994;-38
2022/09/30 14:34:42;;;;;;;;;;;;;;;;;;4911493;29;19922;-37
2022/09/30 14:37:08;;;;;;;;;;;;;;;;;;4914418;29;20780;-38
2022/09/30 14:39:33;;;;;;;;;;;;;;;;;;4911607;29;19975;-37
2022/09/30 14:42:00;;;;;;;;;;;;;;;;;;4915272;29;19934;-37
2022/09/30 14:44:25;;;;;;;;;;;;;;;;;;4915206;29;19934;-37
2022/09/30 14:46:50;;;;;;;;;;;;;;;;;;4920268;29;19917;-39
2022/09/30 14:49:15;;;;;;;;;;;;;;;;;;4921238;29;20436;-37
2022/09/30 14:51:42;;;;;;;;;;;;;;;;;;4920344;29;19911;-37
2022/09/30 14:54:07;;;;;;;;;;;;;;;;;;4917223;29;19919;-37
2022/09/30 14:56:32;;;;;;;;;;;;;;;;;;4918936;29;19927;-38
2022/09/30 14:58:58;;;;;;;;;;;;;;;;;;4915647;29;20424;-39
2022/09/30 15:01:24;;;;;;;;;;;;;;;;;;4914409;29;19919;-37
2022/09/30 15:03:49;;;;;;;;;;;;;;;;;;4915166;29;19933;-39
2022/09/30 15:06:15;;;;;;;;;;;;;;;;;;4914172;29;20214;-37
2022/09/30 15:08:40;;;;;;;;;;;;;;;;;;4919178;29;19967;-39
2022/09/30 15:11:05;;;;;;;;;;;;;;;;;;4919122;29;19925;-37
2022/09/30 15:13:30;;;;;;;;;;;;;;;;;;4915005;29;20361;-39
2022/09/30 15:15:55;;;;;;;;;;;;;;;;;;4915001;29;19922;-39
2022/09/30 15:18:21;;;;;;;;;;;;;;;;;;4919072;29;19918;-38
2022/09/30 15:20:46;;;;;;;;;;;;;;;;;;4916775;29;19919;-38
2022/09/30 15:23:11;;;;;;;;;;;;;;;;;;4921589;29;19919;-37
2022/09/30 15:25:37;;;;;;;;;;;;;;;;;;4919933;29;19923;-37
2022/09/30 15:28:02;;;;;;;;;;;;;;;;;;4917505;29;20440;-37
2022/09/30 15:30:28;;;;;;;;;;;;;;;;;;4918911;29;19925;-37
2022/09/30 15:32:53;;;;;;;;;;;;;;;;;;4917587;29;19927;-38
2022/09/30 15:35:19;;;;;;;;;;;;;;;;;;4923715;29;20402;-37
2022/09/30 15:37:44;;;;;;;;;;;;;;;;;;4930089;29;20030;-38
2022/09/30 15:42:54;;;;;;;;;;;;;;;;;;4917026;29;19934;-37
2022/09/30 15:45:19;;;;;;;;;;;;;;;;;;4917893;29;19939;-38
2022/09/30 15:47:44;;;;;;;;;;;;;;;;;;4916212;29;19988;-38
2022/09/30 15:50:09;;;;;;;;;;;;;;;;;;4916135;29;19922;-37
2022/09/30 15:52:35;;;;;;;;;;;;;;;;;;4916701;29;20373;-38
2022/09/30 15:55:00;;;;;;;;;;;;;;;;;;4914626;29;19922;-37
2022/09/30 15:57:25;;;;;;;;;;;;;;;;;;4924985;29;20551;-37
2022/09/30 15:59:51;;;;;;;;;;;;;;;;;;4916695;29;19931;-37
2022/09/30 16:02:16;;;;;;;;;;;;;;;;;;4916935;29;20339;-37
2022/09/30 16:04:42;;;;;;;;;;;;;;;;;;4919981;29;20014;-38
2022/09/30 16:07:08;;;;;;;;;;;;;;;;;;4920800;29;19963;-38
2022/09/30 16:09:33;;;;;;;;;;;;;;;;;;4921907;29;19923;-37
2022/09/30 16:11:58;;;;;;;;;;;;;;;;;;4920605;29;19977;-38
2022/09/30 16:14:23;;;;;;;;;;;;;;;;;;4915539;29;19986;-37
2022/09/30 16:16:49;;;;;;;;;;;;;;;;;;4918435;29;20047;-37
2022/09/30 16:19:14;;;;;;;;;;;;;;;;;;4916787;29;19923;-37
2022/09/30 16:21:43;;;;;;;;;;;;;;;;;;4916370;29;20310;-37
2022/09/30 16:24:08;;;;;;;;;;;;;;;;;;4915435;29;19986;-37
2022/09/30 16:26:33;;;;;;;;;;;;;;;;;;4918035;29;20568;-38
2022/09/30 16:29:02;;;;;;;;;;;;;;;;;;4916984;29;19998;-37
2022/09/30 16:31:29;;;;;;;;;;;;;;;;;;4915963;29;19919;-37
2022/09/30 16:33:54;;;;;;;;;;;;;;;;;;4911797;29;20252;-38
2022/09/30 16:36:19;;;;;;;;;;;;;;;;;;4919493;29;19921;-37
2022/09/30 16:38:44;;;;;;;;;;;;;;;;;;4918681;29;19923;-38
2022/09/30 16:41:09;;;;;;;;;;;;;;;;;;4917099;29;19923;-37